createdAt,value
2023-01-27T00:00:28.627Z,1.00
2023-01-27T00:02:55.384Z,0.57
2023-01-27T00:05:22.215Z,0.63
2023-01-27T00:07:49.919Z,0.68
2023-01-27T00:10:19.181Z,1.17
2023-01-27T00:13:05.274Z,0.90
2023-01-27T00:15:33.603Z,0.63
2023-01-27T00:18:01.127Z,0.90
2023-01-27T00:20:48.430Z,0.50
2023-01-27T00:23:36.412Z,0.70
2023-01-27T00:26:06.667Z,0.90
2023-01-27T00:28:38.083Z,0.85
2023-01-27T00:31:08.180Z,1.10
2023-01-27T00:33:35.069Z,0.90
2023-01-27T00:36:07.077Z,0.75
2023-01-27T00:38:40.866Z,0.93
2023-01-27T00:41:20.033Z,0.60
2023-01-27T00:43:48.042Z,0.82
2023-01-27T00:46:16.074Z,0.93
2023-01-27T00:48:43.201Z,0.60
2023-01-27T00:51:11.134Z,1.33
2023-01-27T00:53:37.760Z,1.20
2023-01-27T00:56:05.470Z,1.00
2023-01-27T00:58:32.166Z,1.10
2023-01-27T01:01:01.504Z,0.95
2023-01-27T01:03:32.931Z,1.00
2023-01-27T01:06:05.149Z,1.70
2023-01-27T01:08:33.516Z,1.25
2023-01-27T01:11:00.189Z,1.10
2023-01-27T01:13:28.385Z,1.17
2023-01-27T01:15:55.860Z,0.95
2023-01-27T01:18:23.303Z,1.13
2023-01-27T01:20:51.040Z,0.80
2023-01-27T01:23:18.161Z,1.00
2023-01-27T01:25:53.182Z,1.55
2023-01-27T01:28:20.087Z,1.52
2023-01-27T01:30:47.172Z,1.70
2023-01-27T01:33:14.250Z,0.82
2023-01-27T01:35:41.016Z,0.88
2023-01-27T01:38:08.248Z,1.38
2023-01-27T01:40:39.761Z,1.25
2023-01-27T01:43:12.185Z,1.10
2023-01-27T01:45:54.984Z,1.45
2023-01-27T01:48:34.948Z,0.95
2023-01-27T01:51:14.704Z,0.75
2023-01-27T01:53:47.658Z,1.20
2023-01-27T01:56:19.794Z,1.58
2023-01-27T02:07:12.667Z,1.10
2023-01-27T02:09:39.560Z,1.30
2023-01-27T02:12:06.754Z,1.38
2023-01-27T02:14:33.859Z,1.45
2023-01-27T02:17:00.923Z,1.35
2023-01-27T02:19:45.614Z,1.25
2023-01-27T02:22:20.575Z,1.48
2023-01-27T02:24:51.950Z,1.30
2023-01-27T02:27:18.896Z,1.13
2023-01-27T02:29:45.707Z,1.60
2023-01-27T02:32:26.371Z,1.60
2023-01-27T02:34:55.776Z,1.25
2023-01-27T02:37:24.094Z,1.52
2023-01-27T02:39:52.498Z,1.20
2023-01-27T02:42:19.795Z,0.95
2023-01-27T02:44:46.351Z,1.40
2023-01-27T02:47:13.023Z,1.60
2023-01-27T02:49:39.686Z,1.30
2023-01-27T02:52:06.440Z,1.80
2023-01-27T02:54:33.252Z,1.60
2023-01-27T02:57:00.080Z,1.20
2023-01-27T02:59:26.835Z,1.60
2023-01-27T03:01:53.592Z,0.95
2023-01-27T03:04:20.201Z,1.25
2023-01-27T03:06:46.959Z,1.15
2023-01-27T03:09:13.666Z,1.27
2023-01-27T03:11:59.087Z,1.25
2023-01-27T03:14:44.641Z,1.05
2023-01-27T03:17:29.721Z,0.90
2023-01-27T03:19:56.313Z,0.57
2023-01-27T03:22:23.156Z,1.58
2023-01-27T03:24:49.730Z,0.65
2023-01-27T03:27:16.377Z,1.10
2023-01-27T03:29:55.137Z,0.85
2023-01-27T03:32:27.074Z,0.75
2023-01-27T03:34:57.371Z,1.23
2023-01-27T03:37:47.169Z,1.20
2023-01-27T03:40:33.314Z,0.73
2023-01-27T03:43:18.376Z,1.17
2023-01-27T03:46:07.237Z,0.88
2023-01-27T03:48:34.850Z,0.50
2023-01-27T03:51:03.011Z,1.00
2023-01-27T03:53:30.016Z,0.90
2023-01-27T03:55:56.701Z,1.20
2023-01-27T03:58:31.616Z,1.20
2023-01-27T04:01:20.459Z,0.95
2023-01-27T04:04:06.843Z,0.90
2023-01-27T04:06:54.283Z,0.80
2023-01-27T04:09:22.030Z,0.80
2023-01-27T04:11:54.949Z,0.65
2023-01-27T04:14:37.776Z,0.47
2023-01-27T04:17:11.551Z,0.57
2023-01-27T04:19:38.972Z,0.57
2023-01-27T04:22:06.215Z,0.65
2023-01-27T04:24:33.482Z,0.73
2023-01-27T04:27:11.290Z,0.85
2023-01-27T04:29:41.164Z,0.88
2023-01-27T04:32:10.144Z,0.45
2023-01-27T04:34:37.237Z,0.63
2023-01-27T04:37:05.570Z,0.70
2023-01-27T04:39:32.717Z,0.80
2023-01-27T04:41:59.597Z,0.73
2023-01-27T04:44:26.747Z,0.63
2023-01-27T04:46:56.863Z,0.50
2023-01-27T04:49:23.598Z,0.50
2023-01-27T04:51:50.382Z,0.65
2023-01-27T04:54:17.028Z,0.80
2023-01-27T04:56:56.296Z,0.40
2023-01-27T04:59:23.088Z,0.52
2023-01-27T05:01:50.285Z,0.50
2023-01-27T05:04:17.066Z,0.60
2023-01-27T05:06:43.885Z,0.57
2023-01-27T05:09:10.907Z,0.50
2023-01-27T05:11:37.581Z,0.20
2023-01-27T05:14:04.317Z,0.10
2023-01-27T05:16:30.990Z,0.75
2023-01-27T05:18:57.628Z,0.30
2023-01-27T05:21:28.262Z,0.17
2023-01-27T05:23:54.969Z,0.40
2023-01-27T05:26:27.504Z,0.38
2023-01-27T05:28:56.553Z,0.40
2023-01-27T05:31:29.101Z,0.13
2023-01-27T05:33:58.134Z,0.32
2023-01-27T05:36:25.793Z,0.75
2023-01-27T05:38:53.522Z,0.30
2023-01-27T05:41:21.079Z,0.50
2023-01-27T05:43:52.466Z,0.80
2023-01-27T05:46:21.579Z,0.80
2023-01-27T05:48:50.987Z,0.55
2023-01-27T05:51:20.790Z,0.47
2023-01-27T05:53:47.859Z,0.55
2023-01-27T05:56:17.400Z,0.55
2023-01-27T05:58:44.607Z,0.63
2023-01-27T06:01:19.999Z,0.57
2023-01-27T06:03:47.552Z,0.40
2023-01-27T06:06:16.461Z,0.70
2023-01-27T06:08:43.378Z,0.70
2023-01-27T06:11:10.081Z,0.47
2023-01-27T06:13:38.610Z,0.55
2023-01-27T06:16:08.006Z,0.60
2023-01-27T06:18:35.115Z,0.93
2023-01-27T06:21:03.267Z,0.60
2023-01-27T06:23:30.011Z,0.80
2023-01-27T06:26:00.925Z,0.80
2023-01-27T06:28:29.409Z,0.90
2023-01-27T06:31:03.843Z,0.70
2023-01-27T06:33:30.473Z,0.70
2023-01-27T06:36:02.561Z,0.63
2023-01-27T06:38:29.122Z,0.98
2023-01-27T06:40:55.843Z,0.70
2023-01-27T06:43:22.420Z,0.95
2023-01-27T06:45:52.995Z,0.80
2023-01-27T06:48:19.798Z,1.08
2023-01-27T06:50:46.632Z,0.82
2023-01-27T06:53:13.180Z,0.80
2023-01-27T06:55:41.684Z,1.08
2023-01-27T06:58:09.703Z,0.70
2023-01-27T07:00:38.068Z,1.10
2023-01-27T07:03:05.369Z,0.93
2023-01-27T07:05:33.036Z,0.75
2023-01-27T07:08:00.270Z,0.60
2023-01-27T07:10:27.311Z,1.02
2023-01-27T07:13:03.426Z,1.02
2023-01-27T07:15:32.027Z,0.98
2023-01-27T07:18:00.279Z,0.73
2023-01-27T07:20:30.420Z,0.93
2023-01-27T07:22:58.487Z,1.33
2023-01-27T07:25:25.650Z,1.02
2023-01-27T07:27:53.224Z,1.00
2023-01-27T07:30:21.304Z,0.93
2023-01-27T07:32:48.501Z,0.95
2023-01-27T07:35:15.080Z,1.05
2023-01-27T07:37:41.673Z,0.98
2023-01-27T07:40:10.118Z,1.65
2023-01-27T07:42:36.697Z,0.90
2023-01-27T07:45:03.528Z,1.00
2023-01-27T07:47:30.128Z,1.02
2023-01-27T07:49:57.124Z,0.60
2023-01-27T07:52:23.699Z,1.00
2023-01-27T07:54:50.398Z,1.15
2023-01-27T07:57:17.000Z,0.73
2023-01-27T07:59:43.549Z,0.70
2023-01-27T08:02:11.106Z,0.82
2023-01-27T08:04:52.125Z,1.00
2023-01-27T08:07:19.693Z,1.30
2023-01-27T08:09:46.459Z,1.17
2023-01-27T08:12:12.996Z,1.17
2023-01-27T08:14:39.518Z,1.02
2023-01-27T08:17:06.201Z,1.10
2023-01-27T08:19:32.826Z,1.00
2023-01-27T08:21:59.382Z,0.55
2023-01-27T08:24:26.076Z,0.77
2023-01-27T08:26:52.691Z,0.50
2023-01-27T08:29:19.284Z,0.70
2023-01-27T08:31:46.016Z,0.75
2023-01-27T08:34:12.651Z,1.40
2023-01-27T08:36:42.384Z,0.95
2023-01-27T08:39:09.821Z,1.00
2023-01-27T08:41:36.609Z,1.00
2023-01-27T08:44:03.357Z,0.85
2023-01-27T08:46:29.969Z,1.33
2023-01-27T08:48:56.700Z,0.70
2023-01-27T08:51:23.551Z,0.75
2023-01-27T08:53:50.176Z,0.90
2023-01-27T08:56:17.030Z,0.75
2023-01-27T08:58:45.721Z,1.25
2023-01-27T09:01:12.628Z,1.42
2023-01-27T09:03:39.421Z,0.77
2023-01-27T09:06:09.138Z,0.73
2023-01-27T09:08:36.076Z,1.00
2023-01-27T09:11:16.036Z,1.13
2023-01-27T09:13:44.235Z,0.60
2023-01-27T09:16:10.927Z,0.43
2023-01-27T09:18:37.802Z,0.75
2023-01-27T09:21:05.867Z,0.68
2023-01-27T09:23:33.560Z,0.47
2023-01-27T09:26:00.224Z,1.30
2023-01-27T09:28:26.863Z,1.02
2023-01-27T09:30:59.936Z,0.90
2023-01-27T09:33:27.211Z,0.77
2023-01-27T09:36:00.926Z,0.77
2023-01-27T09:38:31.793Z,1.00
2023-01-27T09:41:22.895Z,0.77
2023-01-27T09:44:13.644Z,0.65
2023-01-27T09:47:25.253Z,0.68
2023-01-27T09:50:20.175Z,0.45
2023-01-27T09:53:14.895Z,0.28
2023-01-27T09:55:44.653Z,0.40
2023-01-27T09:58:31.232Z,1.10
2023-01-27T10:01:18.523Z,0.88
2023-01-27T10:04:08.714Z,1.27
2023-01-27T10:06:44.735Z,0.90
2023-01-27T10:09:39.321Z,0.47
2023-01-27T10:12:30.050Z,0.85
2023-01-27T10:15:10.713Z,1.13
2023-01-27T10:17:57.474Z,0.70
2023-01-27T10:20:32.974Z,0.60
2023-01-27T10:23:13.756Z,0.93
2023-01-27T10:26:01.711Z,1.75
2023-01-27T10:28:31.760Z,0.70
2023-01-27T10:31:31.468Z,1.10
2023-01-27T10:34:04.825Z,1.30
2023-01-27T10:36:48.624Z,0.82
2023-01-27T10:39:39.858Z,0.70
2023-01-27T10:42:36.209Z,0.98
2023-01-27T10:45:08.851Z,0.60
2023-01-27T10:47:58.431Z,0.88
2023-01-27T10:50:35.386Z,1.08
2023-01-27T10:53:19.289Z,0.98
2023-01-27T10:55:54.681Z,1.13
2023-01-27T10:58:51.570Z,0.88
2023-01-27T11:01:25.485Z,1.02
2023-01-27T11:04:40.208Z,1.00
2023-01-27T11:07:07.565Z,0.68
2023-01-27T11:09:41.800Z,0.45
2023-01-27T11:12:12.742Z,1.02
2023-01-27T11:14:51.834Z,0.90
2023-01-27T11:17:46.708Z,0.35
2023-01-27T11:20:30.587Z,0.95
2023-01-27T11:23:00.210Z,0.50
2023-01-27T11:25:36.813Z,0.40
2023-01-27T11:28:37.619Z,0.90
2023-01-27T11:31:37.503Z,0.40
2023-01-27T11:34:11.849Z,0.25
2023-01-27T11:36:38.690Z,0.60
2023-01-27T11:39:06.685Z,0.65
2023-01-27T11:41:38.565Z,0.93
2023-01-27T11:44:12.152Z,0.43
2023-01-27T11:46:38.954Z,0.77
2023-01-27T11:49:07.560Z,0.43
2023-01-27T11:51:40.773Z,0.30
2023-01-27T11:54:20.325Z,0.45
2023-01-27T11:56:49.882Z,0.40
2023-01-27T11:59:28.796Z,0.25
2023-01-27T12:02:18.087Z,0.40
2023-01-27T12:05:00.278Z,0.50
2023-01-27T12:07:40.326Z,0.50
2023-01-27T12:10:31.404Z,0.98
2023-01-27T12:13:01.661Z,0.40
2023-01-27T12:15:30.495Z,0.80
2023-01-27T12:18:02.226Z,0.63
2023-01-27T12:20:34.704Z,0.45
2023-01-27T12:23:16.409Z,0.60
2023-01-27T12:26:00.954Z,0.40
2023-01-27T12:28:34.970Z,0.65
2023-01-27T12:31:10.994Z,0.35
2023-01-27T12:33:42.312Z,0.50
2023-01-27T12:36:14.926Z,0.50
2023-01-27T12:38:50.383Z,0.50
2023-01-27T12:41:26.889Z,0.60
2023-01-27T12:44:00.341Z,0.43
2023-01-27T12:46:28.377Z,0.65
2023-01-27T12:49:06.926Z,0.82
2023-01-27T12:51:42.027Z,0.38
2023-01-27T12:54:22.618Z,0.45
2023-01-27T12:56:51.816Z,0.43
2023-01-27T12:59:21.422Z,0.32
2023-01-27T13:02:15.679Z,0.40
2023-01-27T13:04:43.331Z,0.32
2023-01-27T13:07:16.043Z,0.30
2023-01-27T13:09:56.123Z,0.63
2023-01-27T13:12:27.873Z,0.30
2023-01-27T13:14:57.771Z,0.30
2023-01-27T13:17:38.393Z,0.20
2023-01-27T13:20:30.622Z,0.60
2023-01-27T13:23:10.938Z,0.55
2023-01-27T13:26:09.470Z,0.40
2023-01-27T13:28:51.601Z,0.38
2023-01-27T13:31:45.126Z,0.50
2023-01-27T13:34:43.604Z,0.57
2023-01-27T13:37:28.385Z,0.30
2023-01-27T13:40:23.041Z,0.60
2023-01-27T13:43:16.893Z,0.35
2023-01-27T13:45:46.237Z,0.20
2023-01-27T13:48:26.837Z,0.40
2023-01-27T13:51:12.846Z,0.70
2023-01-27T13:53:40.191Z,0.38
2023-01-27T13:56:29.164Z,0.35
2023-01-27T13:59:20.960Z,0.40
2023-01-27T14:02:15.130Z,0.30
2023-01-27T14:05:19.892Z,0.50
2023-01-27T14:08:15.079Z,0.55
2023-01-27T14:10:57.185Z,0.55
2023-01-27T14:13:54.765Z,0.55
2023-01-27T14:16:34.242Z,0.98
2023-01-27T14:19:23.542Z,0.50
2023-01-27T14:22:14.371Z,0.50
2023-01-27T14:24:50.153Z,0.32
2023-01-27T14:27:42.692Z,0.50
2023-01-27T14:30:30.982Z,0.30
2023-01-27T14:33:21.437Z,0.35
2023-01-27T14:36:00.366Z,0.47
2023-01-27T14:38:56.068Z,1.15
2023-01-27T14:41:34.218Z,0.60
2023-01-27T14:44:13.435Z,0.60
2023-01-27T14:47:10.832Z,0.47
2023-01-27T14:50:03.581Z,0.60
2023-01-27T14:53:03.264Z,0.68
2023-01-27T14:55:53.290Z,0.65
2023-01-27T14:58:38.027Z,0.70
2023-01-27T15:01:24.829Z,0.45
2023-01-27T15:04:05.141Z,0.55
2023-01-27T15:06:47.877Z,0.73
2023-01-27T15:09:31.945Z,0.30
2023-01-27T15:12:17.923Z,0.17
2023-01-27T15:15:15.544Z,0.57
2023-01-27T15:18:01.856Z,0.77
2023-01-27T15:20:54.656Z,0.47
2023-01-27T15:23:37.439Z,0.43
2023-01-27T15:26:07.905Z,0.35
2023-01-27T15:28:39.371Z,0.30
2023-01-27T15:31:14.457Z,0.50
2023-01-27T15:33:48.471Z,0.63
2023-01-27T15:36:26.944Z,0.30
2023-01-27T15:39:02.321Z,0.85
2023-01-27T15:41:29.759Z,0.40
2023-01-27T15:44:39.275Z,0.40
2023-01-27T15:47:26.283Z,0.77
2023-01-27T15:50:25.793Z,0.70
2023-01-27T15:52:59.108Z,0.57
2023-01-27T15:55:34.558Z,0.32
2023-01-27T15:58:21.364Z,0.30
2023-01-27T16:00:53.531Z,0.80
2023-01-27T16:03:43.867Z,0.77
2023-01-27T16:06:25.312Z,0.60
2023-01-27T16:09:00.084Z,0.90
2023-01-27T16:11:29.529Z,0.93
2023-01-27T16:14:14.403Z,1.02
2023-01-27T16:16:45.680Z,0.90
2023-01-27T16:19:21.561Z,1.40
2023-01-27T16:22:19.509Z,1.02
2023-01-27T16:25:24.565Z,1.05
2023-01-27T16:28:00.852Z,1.90
2023-01-27T16:30:31.331Z,1.13
2023-01-27T16:33:06.444Z,1.00
2023-01-27T16:35:42.146Z,1.20
2023-01-27T16:38:25.411Z,0.70
2023-01-27T16:40:56.231Z,0.73
2023-01-27T16:43:31.526Z,1.05
2023-01-27T16:46:01.103Z,1.27
2023-01-27T16:48:44.421Z,1.45
2023-01-27T16:51:20.448Z,2.53
2023-01-27T16:53:49.196Z,1.60
2023-01-27T16:56:37.041Z,1.80
2023-01-27T16:59:07.020Z,0.80
2023-01-27T17:01:49.434Z,0.93
2023-01-27T17:04:34.176Z,0.50
2023-01-27T17:07:11.906Z,0.75
2023-01-27T17:09:49.202Z,0.22
2023-01-27T17:12:32.899Z,0.35
2023-01-27T17:15:01.461Z,0.88
2023-01-27T17:17:31.922Z,0.82
2023-01-27T17:20:03.797Z,1.00
2023-01-27T17:22:42.870Z,0.77
2023-01-27T17:25:24.053Z,0.60
2023-01-27T17:27:51.111Z,0.85
2023-01-27T17:30:26.757Z,1.30
2023-01-27T17:33:01.323Z,1.83
2023-01-27T17:35:35.192Z,1.17
2023-01-27T17:38:15.303Z,1.20
2023-01-27T17:40:47.041Z,1.58
2023-01-27T17:43:31.824Z,2.58
2023-01-27T17:46:14.365Z,0.90
2023-01-27T17:48:56.300Z,1.45
2023-01-27T17:51:26.366Z,1.15
2023-01-27T17:53:54.369Z,1.58
2023-01-27T17:56:28.950Z,1.23
2023-01-27T17:59:07.309Z,1.25
2023-01-27T18:01:34.422Z,0.80
2023-01-27T18:04:02.905Z,0.80
2023-01-27T18:06:29.683Z,0.70
2023-01-27T18:08:59.212Z,0.45
2023-01-27T18:11:33.654Z,0.73
2023-01-27T18:14:07.954Z,0.35
2023-01-27T18:16:35.469Z,0.85
2023-01-27T18:19:06.932Z,0.80
2023-01-27T18:21:35.463Z,0.50
2023-01-27T18:24:16.566Z,0.57
2023-01-27T18:26:46.824Z,1.48
2023-01-27T18:29:24.630Z,0.75
2023-01-27T18:32:12.671Z,0.80
2023-01-27T18:34:57.531Z,0.95
2023-01-27T18:37:32.719Z,1.42
2023-01-27T18:40:01.097Z,0.60
2023-01-27T18:42:30.439Z,1.25
2023-01-27T18:44:57.405Z,1.38
2023-01-27T18:47:34.170Z,1.85
2023-01-27T18:50:17.822Z,0.95
2023-01-27T18:52:44.709Z,0.60
2023-01-27T18:55:28.775Z,0.55
2023-01-27T18:57:57.495Z,0.52
2023-01-27T19:00:37.445Z,0.82
2023-01-27T19:03:07.579Z,0.32
2023-01-27T19:05:35.818Z,0.65
2023-01-27T19:08:03.203Z,0.93
2023-01-27T19:10:32.597Z,1.52
2023-01-27T19:13:00.931Z,1.95
2023-01-27T19:15:39.642Z,3.58
2023-01-27T19:18:21.587Z,1.88
2023-01-27T19:20:48.427Z,0.80
2023-01-27T19:23:17.932Z,1.85
2023-01-27T19:25:47.478Z,0.85
2023-01-27T19:28:22.703Z,0.77
2023-01-27T19:30:49.311Z,1.38
2023-01-27T19:33:19.154Z,1.02
2023-01-27T19:35:48.600Z,0.65
2023-01-27T19:38:15.170Z,0.65
2023-01-27T19:40:42.025Z,0.88
2023-01-27T19:43:13.425Z,1.23
2023-01-27T19:45:41.641Z,1.00
2023-01-27T19:48:34.479Z,1.30
2023-01-27T19:51:01.049Z,0.80
2023-01-27T19:53:27.615Z,0.60
2023-01-27T19:55:56.985Z,0.60
2023-01-27T19:58:27.901Z,2.33
2023-01-27T20:00:55.788Z,2.55
2023-01-27T20:03:23.191Z,1.88
2023-01-27T20:05:49.844Z,1.45
2023-01-27T20:08:18.896Z,2.00
2023-01-27T20:10:46.206Z,1.90
2023-01-27T20:13:18.153Z,2.90
2023-01-27T20:15:45.864Z,3.55
2023-01-27T20:18:17.397Z,2.47
2023-01-27T20:20:45.065Z,2.35
2023-01-27T20:23:13.565Z,1.75
2023-01-27T20:25:40.332Z,2.20
2023-01-27T20:28:07.995Z,1.73
2023-01-27T20:30:34.675Z,1.50
2023-01-27T20:33:03.363Z,1.35
2023-01-27T20:35:30.585Z,1.20
2023-01-27T20:37:57.323Z,2.08
2023-01-27T20:40:29.073Z,1.55
2023-01-27T20:42:55.973Z,0.90
2023-01-27T20:45:23.403Z,1.08
2023-01-27T20:47:54.107Z,1.60
2023-01-27T20:50:21.877Z,0.90
2023-01-27T20:52:49.228Z,1.05
2023-01-27T20:55:19.209Z,1.30
2023-01-27T20:57:47.116Z,1.40
2023-01-27T21:00:19.119Z,1.92
2023-01-27T21:02:46.262Z,0.85
2023-01-27T21:05:13.709Z,0.80
2023-01-27T21:07:40.891Z,0.77
2023-01-27T21:10:07.893Z,1.23
2023-01-27T21:12:34.964Z,1.73
2023-01-27T21:15:01.735Z,0.73
2023-01-27T21:17:28.425Z,0.65
2023-01-27T21:19:55.218Z,0.88
2023-01-27T21:22:21.900Z,1.40
2023-01-27T21:24:48.601Z,1.50
2023-01-27T21:27:15.365Z,1.50
2023-01-27T21:29:42.363Z,1.33
2023-01-27T21:32:09.160Z,1.17
2023-01-27T21:34:35.929Z,1.27
2023-01-27T21:37:02.542Z,1.20
2023-01-27T21:39:29.332Z,1.50
2023-01-27T21:41:55.945Z,1.65
2023-01-27T21:44:46.343Z,2.28
2023-01-27T21:47:17.921Z,0.98
2023-01-27T21:50:02.365Z,2.03
2023-01-27T21:52:35.393Z,1.40
2023-01-27T21:55:04.355Z,1.80
2023-01-27T21:57:31.553Z,2.45
2023-01-27T21:59:58.435Z,1.67
2023-01-27T22:02:25.367Z,1.65
2023-01-27T22:04:52.453Z,1.63
2023-01-27T22:07:19.663Z,1.52
2023-01-27T22:09:46.473Z,1.88
2023-01-27T22:12:15.264Z,2.03
2023-01-27T22:14:42.444Z,1.77
2023-01-27T22:17:09.412Z,1.30
2023-01-27T22:19:39.211Z,1.80
2023-01-27T22:22:09.075Z,1.35
2023-01-27T22:24:35.739Z,2.33
2023-01-27T22:27:02.501Z,1.05
2023-01-27T22:29:29.196Z,2.10
2023-01-27T22:31:56.158Z,2.10
2023-01-27T22:34:22.999Z,1.52
2023-01-27T22:36:49.735Z,1.55
2023-01-27T22:39:17.302Z,2.33
2023-01-27T22:41:45.394Z,1.88
2023-01-27T22:44:13.189Z,1.73
2023-01-27T22:46:41.552Z,1.48
2023-01-27T22:49:09.182Z,1.77
2023-01-27T22:51:36.388Z,2.55
2023-01-27T22:54:03.133Z,2.15
2023-01-27T22:56:29.831Z,1.45
2023-01-27T22:58:56.647Z,2.38
2023-01-27T23:01:23.434Z,2.35
2023-01-27T23:03:50.075Z,2.30
2023-01-27T23:06:16.848Z,1.77
2023-01-27T23:08:43.690Z,1.75
2023-01-27T23:11:10.564Z,1.52
2023-01-27T23:13:37.286Z,1.95
2023-01-27T23:16:04.534Z,0.88
2023-01-27T23:18:31.388Z,1.80
2023-01-27T23:21:04.301Z,1.88
2023-01-27T23:23:31.113Z,1.70
2023-01-27T23:25:58.114Z,1.15
2023-01-27T23:28:24.976Z,1.40
2023-01-27T23:30:51.920Z,1.45
2023-01-27T23:33:20.218Z,1.65
2023-01-27T23:35:47.160Z,1.27
2023-01-27T23:38:30.317Z,1.33
2023-01-27T23:41:03.175Z,1.60
2023-01-27T23:43:31.067Z,1.38
2023-01-27T23:45:58.333Z,1.67
2023-01-27T23:48:25.312Z,1.65
2023-01-27T23:50:51.856Z,1.40
2023-01-27T23:53:18.699Z,1.38
2023-01-27T23:55:53.512Z,1.20
2023-01-27T23:58:20.468Z,0.70
